createdAt,value
2023-01-28T00:00:16.872Z,74.30
2023-01-28T00:02:43.789Z,74.10
2023-01-28T00:05:11.041Z,73.90
2023-01-28T00:07:38.030Z,74.00
2023-01-28T00:10:05.167Z,74.10
2023-01-28T00:12:32.001Z,74.40
2023-01-28T00:14:58.881Z,74.50
2023-01-28T00:17:25.798Z,74.20
2023-01-28T00:19:52.641Z,74.10
2023-01-28T00:22:19.739Z,74.00
2023-01-28T00:24:46.627Z,74.00
2023-01-28T00:27:13.490Z,74.10
2023-01-28T00:29:40.354Z,74.10
2023-01-28T00:32:08.227Z,74.10
2023-01-28T00:34:35.194Z,74.10
2023-01-28T00:37:02.117Z,74.30
2023-01-28T00:39:29.031Z,74.30
2023-01-28T00:41:55.948Z,74.40
2023-01-28T00:44:23.042Z,74.60
2023-01-28T00:46:50.013Z,74.60
2023-01-28T00:49:16.922Z,74.50
2023-01-28T00:51:43.776Z,74.60
2023-01-28T00:54:12.076Z,74.70
2023-01-28T00:56:38.971Z,74.70
2023-01-28T00:59:05.901Z,74.80
2023-01-28T01:01:32.896Z,75.10
2023-01-28T01:04:03.293Z,75.30
2023-01-28T01:06:35.591Z,75.20
2023-01-28T01:09:04.573Z,75.10
2023-01-28T01:11:32.567Z,75.10
2023-01-28T01:14:00.309Z,75.00
2023-01-28T01:16:28.516Z,74.90
2023-01-28T01:18:56.080Z,74.40
2023-01-28T01:21:24.793Z,74.30
2023-01-28T01:23:52.043Z,74.40
2023-01-28T01:26:19.534Z,74.40
2023-01-28T01:28:46.697Z,74.40
2023-01-28T01:31:15.261Z,74.50
2023-01-28T01:33:42.909Z,74.70
2023-01-28T01:36:10.939Z,74.80
2023-01-28T01:38:38.106Z,74.60
2023-01-28T01:41:05.563Z,74.40
2023-01-28T01:43:50.980Z,74.40
2023-01-28T01:46:20.959Z,74.50
2023-01-28T01:48:48.185Z,74.30
2023-01-28T01:51:17.991Z,74.20
2023-01-28T01:53:47.205Z,74.20
2023-01-28T01:56:16.377Z,74.40
2023-01-28T01:58:44.409Z,74.40
2023-01-28T02:01:11.890Z,74.40
2023-01-28T02:03:44.222Z,74.40
2023-01-28T02:06:11.317Z,74.40
2023-01-28T02:08:38.151Z,74.40
2023-01-28T02:11:08.748Z,74.60
2023-01-28T02:13:38.265Z,74.60
2023-01-28T02:16:05.508Z,74.60
2023-01-28T02:18:33.070Z,74.50
2023-01-28T02:21:18.587Z,74.60
2023-01-28T02:23:45.570Z,74.60
2023-01-28T02:26:31.100Z,74.70
2023-01-28T02:29:00.801Z,74.90
2023-01-28T02:31:31.214Z,74.90
2023-01-28T02:34:19.968Z,74.90
2023-01-28T02:36:50.674Z,74.90
2023-01-28T02:39:22.314Z,74.90
2023-01-28T02:41:53.113Z,74.90
2023-01-28T02:44:20.058Z,74.80
2023-01-28T02:47:05.461Z,74.70
2023-01-28T02:49:43.874Z,74.70
2023-01-28T02:52:17.888Z,74.80
2023-01-28T02:55:01.139Z,74.60
2023-01-28T02:57:36.562Z,74.40
2023-01-28T03:00:09.781Z,74.40
2023-01-28T03:02:45.910Z,74.30
2023-01-28T03:05:37.333Z,74.30
2023-01-28T03:08:25.759Z,74.30
2023-01-28T03:11:12.602Z,74.30
2023-01-28T03:13:59.220Z,74.30
2023-01-28T03:16:44.422Z,74.10
2023-01-28T03:19:30.427Z,74.00
2023-01-28T03:22:16.628Z,73.90
2023-01-28T03:25:04.878Z,73.80
2023-01-28T03:27:58.612Z,73.80
2023-01-28T03:30:49.390Z,73.70
2023-01-28T03:33:35.722Z,73.90
2023-01-28T03:36:22.119Z,73.90
2023-01-28T03:38:48.987Z,73.70
2023-01-28T03:41:22.967Z,73.70
2023-01-28T03:43:50.338Z,73.60
2023-01-28T03:46:18.593Z,73.40
2023-01-28T03:48:45.863Z,73.10
2023-01-28T03:51:12.758Z,73.10
2023-01-28T03:53:40.569Z,73.10
2023-01-28T03:56:07.642Z,73.00
2023-01-28T03:58:46.811Z,73.00
2023-01-28T04:01:13.866Z,73.00
2023-01-28T04:03:40.742Z,73.00
2023-01-28T04:06:08.974Z,73.10
2023-01-28T04:08:36.013Z,73.00
2023-01-28T04:11:20.045Z,73.00
2023-01-28T04:13:47.952Z,73.10
2023-01-28T04:16:16.642Z,73.00
2023-01-28T04:18:43.873Z,73.00
2023-01-28T04:21:11.721Z,73.00
2023-01-28T04:23:39.160Z,72.90
2023-01-28T04:26:06.121Z,72.90
2023-01-28T04:28:33.073Z,72.90
2023-01-28T04:31:00.116Z,72.90
2023-01-28T04:33:27.020Z,72.90
2023-01-28T04:35:53.941Z,73.00
2023-01-28T04:38:20.801Z,72.90
2023-01-28T04:40:54.267Z,72.80
2023-01-28T04:43:21.137Z,72.80
2023-01-28T04:45:48.701Z,73.00
2023-01-28T04:48:15.902Z,72.90
2023-01-28T04:50:43.019Z,73.10
2023-01-28T04:53:10.466Z,73.40
2023-01-28T04:55:37.482Z,73.40
2023-01-28T04:58:04.477Z,73.30
2023-01-28T05:00:31.361Z,73.30
2023-01-28T05:02:58.208Z,73.30
2023-01-28T05:05:25.163Z,73.40
2023-01-28T05:07:55.762Z,73.40
2023-01-28T05:10:23.523Z,73.40
2023-01-28T05:12:50.430Z,73.30
2023-01-28T05:15:18.050Z,73.10
2023-01-28T05:17:45.349Z,73.00
2023-01-28T05:20:13.236Z,73.00
2023-01-28T05:22:40.522Z,73.10
2023-01-28T05:25:07.870Z,73.10
2023-01-28T05:27:34.808Z,73.30
2023-01-28T05:30:01.704Z,73.30
2023-01-28T05:32:28.627Z,73.00
2023-01-28T05:34:55.545Z,72.90
2023-01-28T05:37:22.480Z,73.00
2023-01-28T05:39:49.338Z,73.00
2023-01-28T05:42:18.805Z,73.30
2023-01-28T05:44:45.786Z,73.30
2023-01-28T05:47:12.651Z,73.50
2023-01-28T05:49:39.597Z,73.80
2023-01-28T05:52:06.591Z,73.80
2023-01-28T05:54:33.469Z,73.80
2023-01-28T05:57:00.385Z,73.70
2023-01-28T05:59:27.239Z,73.70
2023-01-28T06:01:54.141Z,73.70
2023-01-28T06:04:20.985Z,73.60
2023-01-28T06:06:47.837Z,73.40
2023-01-28T06:09:14.731Z,73.50
2023-01-28T06:11:41.633Z,73.20
2023-01-28T06:14:08.436Z,73.30
2023-01-28T06:16:35.427Z,73.40
2023-01-28T06:19:02.377Z,73.10
2023-01-28T06:21:30.311Z,73.00
2023-01-28T06:23:57.297Z,73.00
2023-01-28T06:26:24.587Z,73.20
2023-01-28T06:28:51.461Z,73.20
2023-01-28T06:31:19.282Z,73.20
2023-01-28T06:33:46.351Z,73.10
2023-01-28T06:36:13.316Z,73.10
2023-01-28T06:38:40.249Z,73.10
2023-01-28T06:41:07.046Z,72.80
2023-01-28T06:43:33.925Z,72.50
2023-01-28T06:46:01.213Z,72.20
2023-01-28T06:48:28.638Z,72.20
2023-01-28T06:50:55.576Z,72.40
2023-01-28T06:53:22.642Z,72.20
2023-01-28T06:55:49.628Z,72.20
2023-01-28T06:58:16.563Z,72.20
2023-01-28T07:00:43.433Z,72.20
2023-01-28T07:03:10.645Z,72.10
2023-01-28T07:05:37.682Z,72.20
2023-01-28T07:08:04.616Z,72.30
2023-01-28T07:10:31.696Z,72.50
2023-01-28T07:12:58.530Z,72.70
2023-01-28T07:15:25.491Z,72.70
2023-01-28T07:17:52.506Z,72.60
2023-01-28T07:20:19.523Z,72.60
2023-01-28T07:22:46.636Z,72.50
2023-01-28T07:25:14.689Z,72.10
2023-01-28T07:27:48.533Z,71.90
2023-01-28T07:30:15.879Z,72.00
2023-01-28T07:32:42.897Z,71.90
2023-01-28T07:35:09.892Z,71.80
2023-01-28T07:37:36.831Z,72.00
2023-01-28T07:40:04.066Z,72.30
2023-01-28T07:42:30.995Z,72.40
2023-01-28T07:44:57.922Z,72.10
2023-01-28T07:47:24.877Z,72.00
2023-01-28T07:49:51.777Z,72.10
2023-01-28T07:52:18.602Z,72.00
2023-01-28T07:54:46.401Z,72.00
2023-01-28T07:57:13.231Z,72.10
2023-01-28T07:59:40.300Z,72.10
2023-01-28T08:02:10.204Z,72.20
2023-01-28T08:04:38.365Z,72.10
2023-01-28T08:07:07.943Z,72.10
2023-01-28T08:09:35.340Z,72.20
2023-01-28T08:12:02.892Z,72.20
2023-01-28T08:14:29.819Z,72.00
2023-01-28T08:16:58.187Z,72.00
2023-01-28T08:19:25.072Z,71.90
2023-01-28T08:21:52.750Z,71.70
2023-01-28T08:24:19.636Z,71.80
2023-01-28T08:26:48.532Z,71.80
2023-01-28T08:29:15.402Z,71.60
2023-01-28T08:31:42.375Z,71.50
2023-01-28T08:34:09.307Z,71.20
2023-01-28T08:36:36.348Z,71.30
2023-01-28T08:39:03.436Z,71.20
2023-01-28T08:41:31.276Z,71.20
2023-01-28T08:43:59.497Z,71.10
2023-01-28T08:46:26.640Z,71.10
2023-01-28T08:48:53.643Z,71.20
2023-01-28T08:51:20.514Z,71.20
2023-01-28T08:53:47.469Z,71.20
2023-01-28T08:56:15.050Z,71.20
2023-01-28T08:58:42.039Z,71.10
2023-01-28T09:01:08.927Z,71.00
2023-01-28T09:03:36.406Z,71.10
2023-01-28T09:06:04.307Z,71.10
2023-01-28T09:08:31.194Z,71.10
2023-01-28T09:10:58.658Z,70.90
2023-01-28T09:13:25.856Z,70.90
2023-01-28T09:15:53.056Z,70.80
2023-01-28T09:18:20.056Z,71.00
2023-01-28T09:20:47.021Z,70.90
2023-01-28T09:23:13.986Z,70.80
2023-01-28T09:25:40.977Z,70.80
2023-01-28T09:28:08.332Z,70.90
2023-01-28T09:30:37.371Z,71.00
2023-01-28T09:33:04.602Z,70.70
2023-01-28T09:35:31.576Z,70.80
2023-01-28T09:37:59.253Z,70.70
2023-01-28T09:40:32.274Z,70.70
2023-01-28T09:43:05.210Z,70.70
2023-01-28T09:45:37.741Z,71.00
2023-01-28T09:48:06.191Z,71.10
2023-01-28T09:50:33.344Z,71.00
2023-01-28T09:53:03.395Z,70.90
2023-01-28T09:55:33.022Z,70.90
2023-01-28T09:58:00.114Z,70.90
2023-01-28T10:00:31.855Z,70.90
2023-01-28T10:02:58.732Z,70.80
2023-01-28T10:05:25.801Z,70.80
2023-01-28T10:08:19.136Z,72.00
2023-01-28T10:10:55.101Z,71.50
2023-01-28T10:13:54.326Z,71.30
2023-01-28T10:16:21.451Z,71.00
2023-01-28T10:18:57.073Z,70.80
2023-01-28T10:21:33.991Z,70.80
2023-01-28T10:24:06.741Z,70.80
2023-01-28T10:26:36.149Z,70.90
2023-01-28T10:29:19.475Z,70.90
2023-01-28T10:31:57.386Z,70.90
2023-01-28T10:34:24.392Z,71.00
2023-01-28T10:36:51.628Z,71.10
2023-01-28T10:39:21.447Z,71.10
2023-01-28T10:41:57.973Z,71.10
2023-01-28T10:44:46.008Z,71.30
2023-01-28T10:47:17.109Z,71.30
2023-01-28T10:49:49.557Z,71.20
2023-01-28T10:52:16.703Z,71.30
2023-01-28T10:54:43.609Z,71.40
2023-01-28T10:57:13.170Z,71.50
2023-01-28T10:59:43.095Z,71.60
2023-01-28T11:02:28.593Z,71.50
2023-01-28T11:05:04.695Z,71.50
2023-01-28T11:07:31.549Z,71.60
2023-01-28T11:09:58.418Z,71.70
2023-01-28T11:12:29.673Z,71.70
2023-01-28T11:15:00.387Z,71.80
2023-01-28T11:17:32.553Z,71.70
2023-01-28T11:20:00.907Z,71.70
2023-01-28T11:22:31.010Z,71.70
2023-01-28T11:24:58.050Z,71.70
2023-01-28T11:27:28.224Z,71.80
2023-01-28T11:29:57.597Z,71.90
2023-01-28T11:32:25.796Z,71.90
2023-01-28T11:34:53.845Z,71.90
2023-01-28T11:37:22.981Z,72.00
2023-01-28T11:40:00.547Z,72.00
2023-01-28T11:42:27.448Z,72.00
2023-01-28T11:44:54.377Z,72.00
2023-01-28T11:47:39.962Z,72.00
2023-01-28T11:50:20.635Z,72.10
2023-01-28T11:53:06.312Z,72.40
2023-01-28T11:55:52.979Z,72.50
2023-01-28T11:58:28.978Z,72.50
2023-01-28T12:01:01.218Z,72.70
2023-01-28T12:03:32.228Z,72.70
2023-01-28T12:06:13.153Z,72.80
2023-01-28T12:08:54.378Z,72.90
2023-01-28T12:11:47.420Z,73.10
2023-01-28T12:14:31.791Z,73.20
2023-01-28T12:17:26.339Z,73.20
2023-01-28T12:19:56.305Z,73.30
2023-01-28T12:22:30.340Z,73.50
2023-01-28T12:25:15.857Z,73.80
2023-01-28T12:27:56.358Z,73.80
2023-01-28T12:30:29.321Z,73.80
2023-01-28T12:32:59.183Z,73.90
2023-01-28T12:35:32.847Z,73.90
2023-01-28T12:38:05.957Z,73.80
2023-01-28T12:40:38.897Z,73.90
2023-01-28T12:43:10.623Z,73.90
2023-01-28T12:45:43.167Z,74.00
2023-01-28T12:48:13.260Z,74.20
2023-01-28T12:50:46.698Z,74.20
2023-01-28T12:53:22.451Z,74.30
2023-01-28T12:55:53.907Z,74.30
2023-01-28T12:58:22.889Z,74.50
2023-01-28T13:00:51.564Z,74.50
2023-01-28T13:03:18.569Z,74.70
2023-01-28T13:05:52.342Z,74.80
2023-01-28T13:08:23.880Z,75.30
2023-01-28T13:10:51.421Z,75.00
2023-01-28T13:13:18.556Z,74.70
2023-01-28T13:15:46.993Z,74.50
2023-01-28T13:18:32.625Z,74.60
2023-01-28T13:21:00.604Z,74.60
2023-01-28T13:23:38.575Z,74.60
2023-01-28T13:26:22.557Z,74.70
2023-01-28T13:28:51.561Z,74.70
2023-01-28T13:31:20.311Z,74.60
2023-01-28T13:33:48.589Z,74.70
2023-01-28T13:36:18.266Z,74.70
2023-01-28T13:38:45.821Z,74.50
2023-01-28T13:41:12.779Z,74.70
2023-01-28T13:43:41.654Z,74.70
2023-01-28T13:46:13.541Z,74.80
2023-01-28T13:48:40.543Z,74.80
2023-01-28T13:51:12.946Z,74.70
2023-01-28T13:53:47.484Z,74.80
2023-01-28T13:56:22.312Z,74.70
2023-01-28T13:58:49.149Z,74.80
2023-01-28T14:01:28.361Z,74.70
2023-01-28T14:04:08.849Z,74.70
2023-01-28T14:06:38.913Z,74.70
2023-01-28T14:09:24.888Z,74.70
2023-01-28T14:12:04.372Z,74.70
2023-01-28T14:14:31.329Z,74.70
2023-01-28T14:17:12.573Z,74.60
2023-01-28T14:19:40.053Z,74.60
2023-01-28T14:22:07.880Z,74.60
2023-01-28T14:24:36.951Z,74.60
2023-01-28T14:27:08.775Z,74.60
2023-01-28T14:29:54.576Z,74.60
2023-01-28T14:32:29.501Z,74.60
2023-01-28T14:34:58.965Z,74.60
2023-01-28T14:37:29.141Z,74.60
2023-01-28T14:39:58.615Z,74.60
2023-01-28T14:42:27.127Z,74.70
2023-01-28T14:44:57.111Z,74.70
2023-01-28T14:47:42.832Z,74.70
2023-01-28T14:50:26.935Z,74.60
2023-01-28T14:52:53.961Z,74.60
2023-01-28T14:55:30.196Z,74.60
2023-01-28T14:57:59.647Z,74.70
2023-01-28T15:00:28.206Z,74.80
2023-01-28T15:02:55.207Z,74.80
2023-01-28T15:05:24.020Z,74.80
2023-01-28T15:07:51.090Z,74.80
2023-01-28T15:10:24.622Z,74.70
2023-01-28T15:12:55.861Z,74.70
2023-01-28T15:15:28.488Z,74.80
2023-01-28T15:18:00.353Z,74.70
2023-01-28T15:20:27.200Z,74.80
2023-01-28T15:22:54.316Z,74.70
2023-01-28T15:25:23.772Z,74.90
2023-01-28T15:27:56.068Z,74.80
2023-01-28T15:30:32.209Z,74.80
2023-01-28T15:32:59.814Z,74.80
2023-01-28T15:35:27.080Z,74.90
2023-01-28T15:37:55.136Z,75.00
2023-01-28T15:40:22.811Z,75.00
2023-01-28T15:42:50.610Z,75.00
2023-01-28T15:45:18.802Z,75.00
2023-01-28T15:47:46.746Z,75.10
2023-01-28T15:50:21.385Z,75.10
2023-01-28T15:52:48.620Z,75.30
2023-01-28T15:55:30.352Z,82.70
2023-01-28T15:57:57.328Z,79.10
2023-01-28T16:00:25.221Z,76.90
2023-01-28T16:02:54.087Z,75.90
2023-01-28T16:05:28.892Z,75.40
2023-01-28T16:07:56.771Z,75.60
2023-01-28T16:10:25.813Z,75.10
2023-01-28T16:12:53.510Z,75.00
2023-01-28T16:15:21.748Z,75.00
2023-01-28T16:17:50.361Z,74.90
2023-01-28T16:20:25.152Z,74.80
2023-01-28T16:22:54.672Z,75.00
2023-01-28T16:25:21.539Z,75.10
2023-01-28T16:27:48.623Z,75.70
2023-01-28T16:30:16.085Z,76.00
2023-01-28T16:32:43.353Z,75.90
2023-01-28T16:35:18.670Z,75.80
2023-01-28T16:37:46.456Z,75.70
2023-01-28T16:40:14.116Z,76.00
2023-01-28T16:42:41.116Z,86.10
2023-01-28T16:45:14.906Z,86.00
2023-01-28T16:47:42.315Z,83.20
2023-01-28T16:50:10.823Z,80.60
2023-01-28T16:52:37.813Z,77.90
2023-01-28T16:55:05.277Z,74.50
2023-01-28T16:57:33.381Z,72.90
2023-01-28T17:00:00.288Z,72.20
2023-01-28T17:02:27.355Z,71.80
2023-01-28T17:04:54.296Z,71.60
2023-01-28T17:07:21.191Z,71.70
2023-01-28T17:09:48.171Z,71.70
2023-01-28T17:12:15.063Z,72.00
2023-01-28T17:14:42.024Z,72.20
2023-01-28T17:17:08.934Z,72.60
2023-01-28T17:19:35.875Z,72.80
2023-01-28T17:22:02.804Z,73.00
2023-01-28T17:24:30.081Z,72.90
2023-01-28T17:26:57.063Z,73.00
2023-01-28T17:29:23.992Z,73.40
2023-01-28T17:31:51.066Z,76.10
2023-01-28T17:34:18.014Z,75.50
2023-01-28T17:36:45.116Z,74.20
2023-01-28T17:39:17.147Z,73.70
2023-01-28T17:41:44.123Z,73.60
2023-01-28T17:44:16.810Z,73.50
2023-01-28T17:46:43.636Z,73.60
2023-01-28T17:49:10.611Z,74.40
2023-01-28T17:51:37.452Z,74.30
2023-01-28T17:54:07.581Z,74.00
2023-01-28T17:56:34.430Z,73.90
2023-01-28T17:59:06.803Z,74.30
2023-01-28T18:01:34.659Z,74.80
2023-01-28T18:04:01.659Z,74.70
2023-01-28T18:06:32.972Z,74.40
2023-01-28T18:09:00.033Z,74.30
2023-01-28T18:11:27.959Z,74.30
2023-01-28T18:13:54.861Z,74.20
2023-01-28T18:16:21.830Z,74.10
2023-01-28T18:18:51.097Z,74.20
2023-01-28T18:21:22.638Z,74.10
2023-01-28T18:23:51.471Z,74.20
2023-01-28T18:26:18.493Z,74.20
2023-01-28T18:28:45.415Z,74.20
2023-01-28T18:31:14.453Z,74.40
2023-01-28T18:33:41.485Z,74.50
2023-01-28T18:36:11.591Z,75.40
2023-01-28T18:38:38.500Z,75.00
2023-01-28T18:41:05.513Z,74.80
2023-01-28T18:43:32.858Z,74.60
2023-01-28T18:46:00.628Z,74.60
2023-01-28T18:48:27.888Z,74.70
2023-01-28T18:50:55.373Z,76.00
2023-01-28T18:53:22.453Z,75.40
2023-01-28T18:55:49.441Z,75.00
2023-01-28T18:58:16.686Z,74.80
2023-01-28T19:00:43.583Z,74.50
2023-01-28T19:03:10.742Z,74.40
2023-01-28T19:05:39.436Z,74.50
2023-01-28T19:08:07.670Z,74.30
2023-01-28T19:10:34.756Z,74.30
2023-01-28T19:13:02.591Z,74.40
2023-01-28T19:15:30.201Z,74.40
2023-01-28T19:17:57.448Z,74.40
2023-01-28T19:20:24.472Z,74.50
2023-01-28T19:22:51.289Z,74.60
2023-01-28T19:25:18.559Z,74.70
2023-01-28T19:27:45.523Z,74.70
2023-01-28T19:30:12.435Z,74.60
2023-01-28T19:32:39.414Z,74.60
2023-01-28T19:35:06.606Z,74.70
2023-01-28T19:37:33.738Z,74.70
2023-01-28T19:40:00.656Z,74.80
2023-01-28T19:42:27.446Z,74.80
2023-01-28T19:44:54.308Z,74.80
2023-01-28T19:47:21.461Z,74.90
2023-01-28T19:49:50.349Z,74.90
2023-01-28T19:52:17.336Z,74.80
2023-01-28T19:54:44.329Z,74.80
2023-01-28T19:57:11.154Z,74.80
2023-01-28T19:59:38.031Z,74.80
2023-01-28T20:02:04.850Z,74.70
2023-01-28T20:04:32.027Z,74.70
2023-01-28T20:06:58.905Z,74.70
2023-01-28T20:09:25.722Z,74.70
2023-01-28T20:11:52.589Z,74.70
2023-01-28T20:14:20.938Z,74.70
2023-01-28T20:16:48.013Z,74.70
2023-01-28T20:19:16.659Z,74.80
2023-01-28T20:21:43.629Z,74.70
2023-01-28T20:24:11.905Z,74.70
2023-01-28T20:26:39.038Z,74.70
2023-01-28T20:29:07.781Z,74.80
2023-01-28T20:31:34.854Z,74.70
2023-01-28T20:34:01.915Z,74.70
2023-01-28T20:36:28.805Z,74.70
2023-01-28T20:38:55.727Z,74.50
2023-01-28T20:41:24.384Z,74.40
2023-01-28T20:43:52.107Z,74.30
2023-01-28T20:46:20.707Z,74.50
2023-01-28T20:48:48.180Z,74.70
2023-01-28T20:51:19.496Z,74.80
2023-01-28T20:53:47.270Z,74.80
2023-01-28T20:56:14.791Z,74.80
2023-01-28T20:58:41.911Z,74.70
2023-01-28T21:01:15.740Z,74.70
2023-01-28T21:03:42.669Z,74.50
2023-01-28T21:06:09.554Z,74.50
2023-01-28T21:08:36.401Z,74.70
2023-01-28T21:11:03.736Z,74.80
2023-01-28T21:13:30.579Z,74.80
2023-01-28T21:15:58.049Z,74.60
2023-01-28T21:18:25.262Z,74.40
2023-01-28T21:20:53.775Z,74.60
2023-01-28T21:23:22.595Z,74.70
2023-01-28T21:25:52.760Z,74.70
2023-01-28T21:28:20.016Z,74.50
2023-01-28T21:30:47.267Z,74.50
2023-01-28T21:33:14.265Z,74.60
2023-01-28T21:35:42.383Z,74.60
2023-01-28T21:38:09.631Z,74.60
2023-01-28T21:40:36.877Z,74.60
2023-01-28T21:43:03.797Z,74.40
2023-01-28T21:45:30.716Z,74.30
2023-01-28T21:47:57.734Z,74.20
2023-01-28T21:50:24.600Z,74.10
2023-01-28T21:52:52.056Z,74.10
2023-01-28T21:55:19.687Z,74.30
2023-01-28T21:57:46.576Z,74.10
2023-01-28T22:00:13.703Z,74.10
2023-01-28T22:02:40.782Z,74.10
2023-01-28T22:05:08.371Z,74.00
2023-01-28T22:07:35.297Z,73.90
2023-01-28T22:10:02.275Z,73.90
2023-01-28T22:12:29.267Z,73.90
2023-01-28T22:14:56.988Z,73.80
2023-01-28T22:17:23.984Z,73.60
2023-01-28T22:19:50.856Z,73.50
2023-01-28T22:22:17.877Z,73.60
2023-01-28T22:24:44.970Z,73.50
2023-01-28T22:27:11.978Z,73.50
2023-01-28T22:29:38.819Z,73.40
2023-01-28T22:32:06.035Z,73.40
2023-01-28T22:34:32.936Z,73.30
2023-01-28T22:36:59.816Z,73.30
2023-01-28T22:39:26.733Z,73.30
2023-01-28T22:41:53.929Z,73.20
2023-01-28T22:44:20.872Z,73.20
2023-01-28T22:46:48.398Z,73.10
2023-01-28T22:49:15.418Z,73.00
2023-01-28T22:51:42.832Z,72.90
2023-01-28T22:54:11.048Z,72.90
2023-01-28T22:56:38.498Z,72.80
2023-01-28T22:59:05.720Z,72.70
2023-01-28T23:01:33.084Z,72.70
2023-01-28T23:04:00.124Z,72.60
2023-01-28T23:06:27.751Z,72.60
2023-01-28T23:08:56.470Z,72.50
2023-01-28T23:11:27.712Z,72.40
2023-01-28T23:14:15.133Z,72.40
2023-01-28T23:17:01.049Z,72.40
2023-01-28T23:19:46.900Z,72.20
2023-01-28T23:22:34.349Z,72.20
2023-01-28T23:25:01.228Z,72.10
2023-01-28T23:27:28.104Z,72.00
2023-01-28T23:29:55.008Z,72.00
2023-01-28T23:32:22.659Z,71.90
2023-01-28T23:34:49.540Z,71.90
2023-01-28T23:37:16.614Z,71.80
2023-01-28T23:39:43.658Z,71.80
2023-01-28T23:42:13.480Z,71.80
2023-01-28T23:44:40.732Z,71.70
2023-01-28T23:47:07.842Z,71.70
2023-01-28T23:49:34.767Z,71.70
2023-01-28T23:52:04.136Z,71.60
2023-01-28T23:54:31.269Z,71.50
2023-01-28T23:56:58.326Z,71.50
2023-01-28T23:59:25.249Z,71.40
